sensor_id;sensor_type;location;lat;lon;timestamp;P1;durP1;ratioP1;P2;durP2;ratioP2
56929;SDS011;43458;44.012;20.922;2022-07-05T00:01:12;20.98;;;18.63;;
56929;SDS011;43458;44.012;20.922;2022-07-05T00:03:38;21.30;;;17.73;;
56929;SDS011;43458;44.012;20.922;2022-07-05T00:06:04;20.98;;;18.05;;
56929;SDS011;43458;44.012;20.922;2022-07-05T00:08:30;19.85;;;17.85;;
56929;SDS011;43458;44.012;20.922;2022-07-05T00:10:56;19.77;;;17.02;;
56929;SDS011;43458;44.012;20.922;2022-07-05T00:13:22;21.35;;;18.63;;
56929;SDS011;43458;44.012;20.922;2022-07-05T00:15:48;19.92;;;17.85;;
56929;SDS011;43458;44.012;20.922;2022-07-05T00:18:17;19.30;;;17.45;;
56929;SDS011;43458;44.012;20.922;2022-07-05T00:20:43;20.02;;;18.15;;
56929;SDS011;43458;44.012;20.922;2022-07-05T00:23:10;26.33;;;20.13;;
56929;SDS011;43458;44.012;20.922;2022-07-05T00:25:36;21.15;;;18.42;;
56929;SDS011;43458;44.012;20.922;2022-07-05T00:28:02;20.00;;;17.92;;
56929;SDS011;43458;44.012;20.922;2022-07-05T00:30:29;19.08;;;17.25;;
56929;SDS011;43458;44.012;20.922;2022-07-05T00:32:55;24.48;;;18.98;;
56929;SDS011;43458;44.012;20.922;2022-07-05T00:35:21;19.92;;;17.23;;
56929;SDS011;43458;44.012;20.922;2022-07-05T00:37:47;19.40;;;17.60;;
56929;SDS011;43458;44.012;20.922;2022-07-05T00:40:13;19.58;;;17.58;;
56929;SDS011;43458;44.012;20.922;2022-07-05T00:42:39;21.15;;;18.90;;
56929;SDS011;43458;44.012;20.922;2022-07-05T00:45:06;21.25;;;18.67;;
56929;SDS011;43458;44.012;20.922;2022-07-05T00:47:32;21.63;;;18.88;;
56929;SDS011;43458;44.012;20.922;2022-07-05T00:49:58;20.15;;;17.95;;
56929;SDS011;43458;44.012;20.922;2022-07-05T00:52:24;20.17;;;18.15;;
56929;SDS011;43458;44.012;20.922;2022-07-05T00:54:50;20.23;;;18.27;;
56929;SDS011;43458;44.012;20.922;2022-07-05T00:57:18;20.70;;;18.73;;
56929;SDS011;43458;44.012;20.922;2022-07-05T00:59:45;20.65;;;18.42;;
56929;SDS011;43458;44.012;20.922;2022-07-05T01:02:11;20.60;;;18.40;;
56929;SDS011;43458;44.012;20.922;2022-07-05T01:04:37;19.00;;;17.17;;
56929;SDS011;43458;44.012;20.922;2022-07-05T01:07:03;19.27;;;17.20;;
56929;SDS011;43458;44.012;20.922;2022-07-05T01:09:30;21.45;;;18.38;;
56929;SDS011;43458;44.012;20.922;2022-07-05T01:11:58;21.20;;;18.60;;
56929;SDS011;43458;44.012;20.922;2022-07-05T01:14:24;20.83;;;18.55;;
56929;SDS011;43458;44.012;20.922;2022-07-05T01:16:51;20.30;;;18.02;;
56929;SDS011;43458;44.012;20.922;2022-07-05T01:19:18;18.65;;;16.83;;
56929;SDS011;43458;44.012;20.922;2022-07-05T01:21:46;20.50;;;18.00;;
56929;SDS011;43458;44.012;20.922;2022-07-05T01:24:13;21.15;;;18.75;;
56929;SDS011;43458;44.012;20.922;2022-07-05T01:26:39;23.25;;;18.90;;
56929;SDS011;43458;44.012;20.922;2022-07-05T01:29:06;20.70;;;18.50;;
56929;SDS011;43458;44.012;20.922;2022-07-05T01:31:33;20.38;;;18.27;;
56929;SDS011;43458;44.012;20.922;2022-07-05T01:34:01;19.65;;;17.60;;
56929;SDS011;43458;44.012;20.922;2022-07-05T01:36:27;21.73;;;19.63;;
56929;SDS011;43458;44.012;20.922;2022-07-05T01:38:54;20.75;;;18.70;;
56929;SDS011;43458;44.012;20.922;2022-07-05T01:41:20;19.73;;;17.67;;
56929;SDS011;43458;44.012;20.922;2022-07-05T01:43:46;22.42;;;19.70;;
56929;SDS011;43458;44.012;20.922;2022-07-05T01:46:12;21.50;;;18.67;;
56929;SDS011;43458;44.012;20.922;2022-07-05T01:48:39;20.95;;;18.92;;
56929;SDS011;43458;44.012;20.922;2022-07-05T01:51:13;21.17;;;19.25;;
56929;SDS011;43458;44.012;20.922;2022-07-05T01:53:42;22.63;;;20.38;;
56929;SDS011;43458;44.012;20.922;2022-07-05T01:56:08;21.65;;;19.40;;
56929;SDS011;43458;44.012;20.922;2022-07-05T01:58:34;21.98;;;19.63;;
56929;SDS011;43458;44.012;20.922;2022-07-05T02:01:01;21.42;;;19.25;;
56929;SDS011;43458;44.012;20.922;2022-07-05T02:03:27;21.20;;;19.10;;
56929;SDS011;43458;44.012;20.922;2022-07-05T02:05:54;21.83;;;19.35;;
56929;SDS011;43458;44.012;20.922;2022-07-05T02:08:20;24.83;;;19.92;;
56929;SDS011;43458;44.012;20.922;2022-07-05T02:10:47;28.67;;;19.58;;
56929;SDS011;43458;44.012;20.922;2022-07-05T02:13:13;21.85;;;19.67;;
56929;SDS011;43458;44.012;20.922;2022-07-05T02:15:40;21.33;;;19.13;;
56929;SDS011;43458;44.012;20.922;2022-07-05T02:18:07;24.90;;;19.63;;
56929;SDS011;43458;44.012;20.922;2022-07-05T02:20:34;21.88;;;19.60;;
56929;SDS011;43458;44.012;20.922;2022-07-05T02:23:01;20.63;;;18.58;;
56929;SDS011;43458;44.012;20.922;2022-07-05T02:25:27;22.63;;;20.33;;
56929;SDS011;43458;44.012;20.922;2022-07-05T02:27:53;21.80;;;19.70;;
56929;SDS011;43458;44.012;20.922;2022-07-05T02:30:20;20.98;;;18.90;;
56929;SDS011;43458;44.012;20.922;2022-07-05T02:32:46;21.30;;;19.23;;
56929;SDS011;43458;44.012;20.922;2022-07-05T02:35:12;23.42;;;20.88;;
56929;SDS011;43458;44.012;20.922;2022-07-05T02:37:38;24.45;;;20.20;;
56929;SDS011;43458;44.012;20.922;2022-07-05T02:40:05;25.95;;;22.33;;
56929;SDS011;43458;44.012;20.922;2022-07-05T02:42:32;22.48;;;20.08;;
56929;SDS011;43458;44.012;20.922;2022-07-05T02:44:58;22.90;;;20.17;;
56929;SDS011;43458;44.012;20.922;2022-07-05T02:47:24;22.85;;;19.42;;
56929;SDS011;43458;44.012;20.922;2022-07-05T02:49:50;21.73;;;19.25;;
56929;SDS011;43458;44.012;20.922;2022-07-05T02:52:18;21.35;;;19.15;;
56929;SDS011;43458;44.012;20.922;2022-07-05T02:54:44;23.73;;;20.83;;
56929;SDS011;43458;44.012;20.922;2022-07-05T02:57:10;23.50;;;19.65;;
56929;SDS011;43458;44.012;20.922;2022-07-05T02:59:36;21.70;;;19.13;;
56929;SDS011;43458;44.012;20.922;2022-07-05T03:02:02;23.90;;;19.85;;
56929;SDS011;43458;44.012;20.922;2022-07-05T03:04:28;21.02;;;19.02;;
56929;SDS011;43458;44.012;20.922;2022-07-05T03:06:54;22.45;;;20.25;;
56929;SDS011;43458;44.012;20.922;2022-07-05T03:09:20;22.33;;;20.10;;
56929;SDS011;43458;44.012;20.922;2022-07-05T03:11:46;21.88;;;19.00;;
56929;SDS011;43458;44.012;20.922;2022-07-05T03:14:12;21.58;;;19.33;;
56929;SDS011;43458;44.012;20.922;2022-07-05T03:16:38;22.00;;;19.90;;
56929;SDS011;43458;44.012;20.922;2022-07-05T03:19:04;21.25;;;19.15;;
56929;SDS011;43458;44.012;20.922;2022-07-05T03:21:30;24.52;;;19.38;;
56929;SDS011;43458;44.012;20.922;2022-07-05T03:23:56;21.45;;;19.35;;
56929;SDS011;43458;44.012;20.922;2022-07-05T03:26:22;22.70;;;19.77;;
56929;SDS011;43458;44.012;20.922;2022-07-05T03:28:48;22.23;;;19.85;;
56929;SDS011;43458;44.012;20.922;2022-07-05T03:31:14;21.80;;;19.75;;
56929;SDS011;43458;44.012;20.922;2022-07-05T03:33:40;22.02;;;19.80;;
56929;SDS011;43458;44.012;20.922;2022-07-05T03:36:07;21.40;;;19.30;;
56929;SDS011;43458;44.012;20.922;2022-07-05T03:38:33;21.75;;;19.42;;
56929;SDS011;43458;44.012;20.922;2022-07-05T03:40:59;23.33;;;19.20;;
56929;SDS011;43458;44.012;20.922;2022-07-05T03:43:25;22.98;;;20.05;;
56929;SDS011;43458;44.012;20.922;2022-07-05T03:45:51;21.58;;;19.27;;
56929;SDS011;43458;44.012;20.922;2022-07-05T03:48:19;26.25;;;21.50;;
56929;SDS011;43458;44.012;20.922;2022-07-05T03:50:45;22.70;;;20.48;;
56929;SDS011;43458;44.012;20.922;2022-07-05T03:53:11;23.42;;;20.30;;
56929;SDS011;43458;44.012;20.922;2022-07-05T03:55:37;21.70;;;19.60;;
56929;SDS011;43458;44.012;20.922;2022-07-05T03:58:03;20.08;;;17.80;;
56929;SDS011;43458;44.012;20.922;2022-07-05T04:00:30;21.42;;;18.98;;
56929;SDS011;43458;44.012;20.922;2022-07-05T04:02:56;22.23;;;19.85;;
56929;SDS011;43458;44.012;20.922;2022-07-05T04:05:22;21.98;;;19.60;;
56929;SDS011;43458;44.012;20.922;2022-07-05T04:07:51;22.95;;;20.42;;
56929;SDS011;43458;44.012;20.922;2022-07-05T04:10:18;24.92;;;20.33;;
56929;SDS011;43458;44.012;20.922;2022-07-05T04:12:44;23.33;;;21.02;;
56929;SDS011;43458;44.012;20.922;2022-07-05T04:15:10;27.20;;;21.33;;
56929;SDS011;43458;44.012;20.922;2022-07-05T04:17:52;22.55;;;20.05;;
56929;SDS011;43458;44.012;20.922;2022-07-05T04:20:19;23.65;;;19.75;;
56929;SDS011;43458;44.012;20.922;2022-07-05T04:22:49;22.85;;;20.48;;
56929;SDS011;43458;44.012;20.922;2022-07-05T04:25:15;23.95;;;19.23;;
56929;SDS011;43458;44.012;20.922;2022-07-05T04:27:51;21.83;;;19.48;;
56929;SDS011;43458;44.012;20.922;2022-07-05T04:30:21;23.27;;;19.15;;
56929;SDS011;43458;44.012;20.922;2022-07-05T04:32:47;22.13;;;19.77;;
56929;SDS011;43458;44.012;20.922;2022-07-05T04:35:14;22.85;;;20.02;;
56929;SDS011;43458;44.012;20.922;2022-07-05T04:37:40;22.42;;;20.13;;
56929;SDS011;43458;44.012;20.922;2022-07-05T04:40:08;23.70;;;20.15;;
56929;SDS011;43458;44.012;20.922;2022-07-05T04:42:34;20.98;;;18.88;;
56929;SDS011;43458;44.012;20.922;2022-07-05T04:45:00;23.90;;;19.92;;
56929;SDS011;43458;44.012;20.922;2022-07-05T04:47:26;23.10;;;18.98;;
56929;SDS011;43458;44.012;20.922;2022-07-05T04:49:53;22.45;;;19.50;;
56929;SDS011;43458;44.012;20.922;2022-07-05T04:52:19;21.58;;;19.05;;
56929;SDS011;43458;44.012;20.922;2022-07-05T04:54:45;20.42;;;18.33;;
56929;SDS011;43458;44.012;20.922;2022-07-05T04:57:11;21.52;;;18.00;;
56929;SDS011;43458;44.012;20.922;2022-07-05T04:59:37;20.90;;;18.05;;
56929;SDS011;43458;44.012;20.922;2022-07-05T05:02:03;21.63;;;18.73;;
56929;SDS011;43458;44.012;20.922;2022-07-05T05:04:29;28.50;;;19.42;;
56929;SDS011;43458;44.012;20.922;2022-07-05T05:06:55;25.13;;;19.55;;
56929;SDS011;43458;44.012;20.922;2022-07-05T05:09:22;21.02;;;18.63;;
56929;SDS011;43458;44.012;20.922;2022-07-05T05:11:48;22.98;;;19.60;;
56929;SDS011;43458;44.012;20.922;2022-07-05T05:14:14;21.73;;;18.65;;
56929;SDS011;43458;44.012;20.922;2022-07-05T05:16:40;19.30;;;17.30;;
56929;SDS011;43458;44.012;20.922;2022-07-05T05:19:06;20.48;;;18.27;;
56929;SDS011;43458;44.012;20.922;2022-07-05T05:21:32;24.02;;;18.52;;
56929;SDS011;43458;44.012;20.922;2022-07-05T05:23:58;19.83;;;16.30;;
56929;SDS011;43458;44.012;20.922;2022-07-05T05:26:24;20.65;;;18.77;;
56929;SDS011;43458;44.012;20.922;2022-07-05T05:28:50;22.15;;;18.17;;
56929;SDS011;43458;44.012;20.922;2022-07-05T05:31:16;34.28;;;27.20;;
56929;SDS011;43458;44.012;20.922;2022-07-05T05:33:44;25.38;;;18.52;;
56929;SDS011;43458;44.012;20.922;2022-07-05T05:36:10;24.35;;;19.90;;
56929;SDS011;43458;44.012;20.922;2022-07-05T05:38:36;24.65;;;19.33;;
56929;SDS011;43458;44.012;20.922;2022-07-05T05:41:02;22.30;;;17.80;;
56929;SDS011;43458;44.012;20.922;2022-07-05T05:43:28;28.38;;;19.33;;
56929;SDS011;43458;44.012;20.922;2022-07-05T05:45:54;23.38;;;18.52;;
56929;SDS011;43458;44.012;20.922;2022-07-05T05:48:20;19.77;;;17.65;;
56929;SDS011;43458;44.012;20.922;2022-07-05T05:50:46;19.23;;;16.45;;
56929;SDS011;43458;44.012;20.922;2022-07-05T05:53:13;22.63;;;19.20;;
56929;SDS011;43458;44.012;20.922;2022-07-05T05:55:39;24.67;;;18.48;;
56929;SDS011;43458;44.012;20.922;2022-07-05T05:58:15;20.23;;;17.73;;
56929;SDS011;43458;44.012;20.922;2022-07-05T06:00:42;21.02;;;17.65;;
56929;SDS011;43458;44.012;20.922;2022-07-05T06:10:26;19.45;;;17.35;;
56929;SDS011;43458;44.012;20.922;2022-07-05T06:32:20;18.88;;;16.20;;
56929;SDS011;43458;44.012;20.922;2022-07-05T06:34:46;20.23;;;17.60;;
56929;SDS011;43458;44.012;20.922;2022-07-05T06:37:12;26.15;;;20.10;;
56929;SDS011;43458;44.012;20.922;2022-07-05T13:52:34;21.08;;;11.02;;
56929;SDS011;43458;44.012;20.922;2022-07-05T13:55:00;31.02;;;13.15;;
56929;SDS011;43458;44.012;20.922;2022-07-05T13:57:26;23.20;;;11.50;;
56929;SDS011;43458;44.012;20.922;2022-07-05T13:59:53;23.48;;;11.05;;
56929;SDS011;43458;44.012;20.922;2022-07-05T14:02:19;25.80;;;12.05;;
56929;SDS011;43458;44.012;20.922;2022-07-05T14:04:45;13.98;;;8.77;;
56929;SDS011;43458;44.012;20.922;2022-07-05T14:07:11;19.88;;;10.45;;
56929;SDS011;43458;44.012;20.922;2022-07-05T14:09:37;20.67;;;10.45;;
56929;SDS011;43458;44.012;20.922;2022-07-05T14:12:03;22.25;;;10.98;;
56929;SDS011;43458;44.012;20.922;2022-07-05T14:14:29;17.25;;;9.80;;
56929;SDS011;43458;44.012;20.922;2022-07-05T14:16:55;19.42;;;9.70;;
56929;SDS011;43458;44.012;20.922;2022-07-05T14:19:21;19.65;;;10.02;;
56929;SDS011;43458;44.012;20.922;2022-07-05T14:21:47;19.67;;;11.48;;
56929;SDS011;43458;44.012;20.922;2022-07-05T14:24:13;20.90;;;10.88;;
56929;SDS011;43458;44.012;20.922;2022-07-05T14:26:39;23.75;;;11.30;;
56929;SDS011;43458;44.012;20.922;2022-07-05T14:29:06;20.13;;;11.05;;
56929;SDS011;43458;44.012;20.922;2022-07-05T14:31:32;18.40;;;11.45;;
56929;SDS011;43458;44.012;20.922;2022-07-05T14:33:58;20.88;;;12.35;;
56929;SDS011;43458;44.012;20.922;2022-07-05T14:36:24;16.02;;;10.23;;
56929;SDS011;43458;44.012;20.922;2022-07-05T14:38:51;19.05;;;11.82;;
56929;SDS011;43458;44.012;20.922;2022-07-05T14:41:17;18.77;;;12.57;;
56929;SDS011;43458;44.012;20.922;2022-07-05T14:43:43;17.30;;;12.30;;
56929;SDS011;43458;44.012;20.922;2022-07-05T14:46:09;16.75;;;10.93;;
56929;SDS011;43458;44.012;20.922;2022-07-05T14:48:38;22.80;;;12.48;;
56929;SDS011;43458;44.012;20.922;2022-07-05T14:51:04;20.23;;;11.70;;
56929;SDS011;43458;44.012;20.922;2022-07-05T14:53:30;19.02;;;10.68;;
56929;SDS011;43458;44.012;20.922;2022-07-05T14:55:56;18.17;;;11.25;;
56929;SDS011;43458;44.012;20.922;2022-07-05T14:58:22;17.08;;;11.20;;
56929;SDS011;43458;44.012;20.922;2022-07-05T15:00:48;17.23;;;10.32;;
56929;SDS011;43458;44.012;20.922;2022-07-05T15:03:14;15.63;;;12.10;;
56929;SDS011;43458;44.012;20.922;2022-07-05T15:05:40;19.15;;;11.48;;
56929;SDS011;43458;44.012;20.922;2022-07-05T15:08:06;25.17;;;13.32;;
56929;SDS011;43458;44.012;20.922;2022-07-05T15:10:32;21.27;;;18.63;;
56929;SDS011;43458;44.012;20.922;2022-07-05T15:12:58;30.00;;;19.42;;
56929;SDS011;43458;44.012;20.922;2022-07-05T15:15:24;29.45;;;22.05;;
56929;SDS011;43458;44.012;20.922;2022-07-05T15:17:50;26.90;;;19.20;;
56929;SDS011;43458;44.012;20.922;2022-07-05T15:20:16;17.98;;;15.20;;
56929;SDS011;43458;44.012;20.922;2022-07-05T15:22:47;21.20;;;14.30;;
56929;SDS011;43458;44.012;20.922;2022-07-05T15:25:13;19.67;;;12.23;;
56929;SDS011;43458;44.012;20.922;2022-07-05T15:27:39;18.42;;;14.80;;
56929;SDS011;43458;44.012;20.922;2022-07-05T15:30:05;19.48;;;14.77;;
56929;SDS011;43458;44.012;20.922;2022-07-05T15:32:31;17.00;;;13.70;;
56929;SDS011;43458;44.012;20.922;2022-07-05T15:34:57;17.33;;;12.43;;
56929;SDS011;43458;44.012;20.922;2022-07-05T15:37:23;17.65;;;11.50;;
56929;SDS011;43458;44.012;20.922;2022-07-05T15:39:49;25.23;;;13.45;;
56929;SDS011;43458;44.012;20.922;2022-07-05T15:42:15;22.95;;;12.85;;
56929;SDS011;43458;44.012;20.922;2022-07-05T15:44:44;13.38;;;10.07;;
56929;SDS011;43458;44.012;20.922;2022-07-05T15:47:10;15.20;;;10.85;;
56929;SDS011;43458;44.012;20.922;2022-07-05T15:49:36;17.30;;;12.20;;
56929;SDS011;43458;44.012;20.922;2022-07-05T15:52:03;15.25;;;11.50;;
56929;SDS011;43458;44.012;20.922;2022-07-05T15:54:29;20.90;;;12.48;;
56929;SDS011;43458;44.012;20.922;2022-07-05T15:56:55;20.83;;;15.02;;
56929;SDS011;43458;44.012;20.922;2022-07-05T15:59:22;22.77;;;12.52;;
56929;SDS011;43458;44.012;20.922;2022-07-05T16:01:49;18.52;;;12.18;;
56929;SDS011;43458;44.012;20.922;2022-07-05T16:04:15;23.58;;;13.23;;
56929;SDS011;43458;44.012;20.922;2022-07-05T16:06:41;19.40;;;13.68;;
56929;SDS011;43458;44.012;20.922;2022-07-05T16:09:07;23.48;;;13.48;;
56929;SDS011;43458;44.012;20.922;2022-07-05T16:11:33;16.90;;;12.63;;
56929;SDS011;43458;44.012;20.922;2022-07-05T16:13:59;19.13;;;13.90;;
56929;SDS011;43458;44.012;20.922;2022-07-05T16:16:25;21.55;;;16.05;;
56929;SDS011;43458;44.012;20.922;2022-07-05T16:18:52;18.42;;;14.80;;
56929;SDS011;43458;44.012;20.922;2022-07-05T16:21:18;18.08;;;13.30;;
56929;SDS011;43458;44.012;20.922;2022-07-05T16:23:45;24.25;;;16.83;;
56929;SDS011;43458;44.012;20.922;2022-07-05T16:26:12;20.70;;;15.82;;
56929;SDS011;43458;44.012;20.922;2022-07-05T16:28:38;19.05;;;13.48;;
56929;SDS011;43458;44.012;20.922;2022-07-05T16:31:05;22.63;;;13.82;;
56929;SDS011;43458;44.012;20.922;2022-07-05T16:33:32;20.23;;;14.93;;
56929;SDS011;43458;44.012;20.922;2022-07-05T16:36:03;18.52;;;14.35;;
56929;SDS011;43458;44.012;20.922;2022-07-05T16:38:29;15.15;;;12.02;;
56929;SDS011;43458;44.012;20.922;2022-07-05T16:40:56;16.55;;;12.57;;
56929;SDS011;43458;44.012;20.922;2022-07-05T16:43:22;18.05;;;11.25;;
56929;SDS011;43458;44.012;20.922;2022-07-05T16:45:49;13.55;;;11.48;;
56929;SDS011;43458;44.012;20.922;2022-07-05T16:48:15;13.95;;;12.07;;
56929;SDS011;43458;44.012;20.922;2022-07-05T16:50:41;15.10;;;9.27;;
56929;SDS011;43458;44.012;20.922;2022-07-05T16:53:07;13.85;;;8.77;;
56929;SDS011;43458;44.012;20.922;2022-07-05T16:55:33;12.05;;;7.10;;
56929;SDS011;43458;44.012;20.922;2022-07-05T16:57:59;8.63;;;6.97;;
56929;SDS011;43458;44.012;20.922;2022-07-05T17:00:27;10.15;;;7.03;;
56929;SDS011;43458;44.012;20.922;2022-07-05T17:02:53;10.63;;;7.03;;
56929;SDS011;43458;44.012;20.922;2022-07-05T17:05:19;12.13;;;7.80;;
56929;SDS011;43458;44.012;20.922;2022-07-05T17:07:46;12.38;;;9.27;;
56929;SDS011;43458;44.012;20.922;2022-07-05T17:10:13;9.68;;;6.95;;
56929;SDS011;43458;44.012;20.922;2022-07-05T17:12:39;11.15;;;6.53;;
56929;SDS011;43458;44.012;20.922;2022-07-05T17:15:05;9.50;;;7.00;;
56929;SDS011;43458;44.012;20.922;2022-07-05T17:17:33;9.60;;;7.15;;
56929;SDS011;43458;44.012;20.922;2022-07-05T17:19:59;9.52;;;6.65;;
56929;SDS011;43458;44.012;20.922;2022-07-05T17:22:25;10.00;;;6.55;;
56929;SDS011;43458;44.012;20.922;2022-07-05T17:24:51;9.95;;;7.68;;
56929;SDS011;43458;44.012;20.922;2022-07-05T17:27:17;8.93;;;5.95;;
56929;SDS011;43458;44.012;20.922;2022-07-05T17:29:43;8.68;;;6.03;;
56929;SDS011;43458;44.012;20.922;2022-07-05T17:32:09;8.20;;;5.93;;
56929;SDS011;43458;44.012;20.922;2022-07-05T17:34:35;9.20;;;6.18;;
56929;SDS011;43458;44.012;20.922;2022-07-05T17:37:02;8.27;;;5.00;;
56929;SDS011;43458;44.012;20.922;2022-07-05T17:39:28;10.55;;;5.40;;
56929;SDS011;43458;44.012;20.922;2022-07-05T17:41:54;7.78;;;5.25;;
56929;SDS011;43458;44.012;20.922;2022-07-05T17:44:20;8.07;;;5.28;;
56929;SDS011;43458;44.012;20.922;2022-07-05T17:46:46;8.93;;;5.45;;
56929;SDS011;43458;44.012;20.922;2022-07-05T17:49:12;7.97;;;6.13;;
56929;SDS011;43458;44.012;20.922;2022-07-05T17:51:39;7.00;;;5.72;;
56929;SDS011;43458;44.012;20.922;2022-07-05T17:54:05;8.00;;;6.45;;
56929;SDS011;43458;44.012;20.922;2022-07-05T17:56:31;9.68;;;5.60;;
56929;SDS011;43458;44.012;20.922;2022-07-05T17:58:57;9.57;;;6.30;;
56929;SDS011;43458;44.012;20.922;2022-07-05T18:01:23;9.50;;;6.00;;
56929;SDS011;43458;44.012;20.922;2022-07-05T18:03:49;6.65;;;5.95;;
56929;SDS011;43458;44.012;20.922;2022-07-05T18:06:15;11.07;;;7.15;;
56929;SDS011;43458;44.012;20.922;2022-07-05T18:08:45;9.57;;;6.85;;
56929;SDS011;43458;44.012;20.922;2022-07-05T18:11:11;10.00;;;6.65;;
56929;SDS011;43458;44.012;20.922;2022-07-05T18:13:40;10.45;;;6.68;;
56929;SDS011;43458;44.012;20.922;2022-07-05T18:16:06;9.05;;;6.45;;
56929;SDS011;43458;44.012;20.922;2022-07-05T18:18:32;11.18;;;6.95;;
56929;SDS011;43458;44.012;20.922;2022-07-05T18:20:58;11.25;;;6.85;;
56929;SDS011;43458;44.012;20.922;2022-07-05T18:23:24;9.90;;;5.93;;
56929;SDS011;43458;44.012;20.922;2022-07-05T18:25:50;9.68;;;5.70;;
56929;SDS011;43458;44.012;20.922;2022-07-05T18:28:17;8.07;;;5.70;;
56929;SDS011;43458;44.012;20.922;2022-07-05T18:30:43;8.80;;;5.95;;
56929;SDS011;43458;44.012;20.922;2022-07-05T18:33:09;6.78;;;5.50;;
56929;SDS011;43458;44.012;20.922;2022-07-05T18:35:35;10.23;;;6.07;;
56929;SDS011;43458;44.012;20.922;2022-07-05T18:38:01;10.52;;;6.80;;
56929;SDS011;43458;44.012;20.922;2022-07-05T18:40:28;12.15;;;7.10;;
56929;SDS011;43458;44.012;20.922;2022-07-05T18:42:54;9.23;;;6.30;;
56929;SDS011;43458;44.012;20.922;2022-07-05T18:45:20;9.48;;;6.47;;
56929;SDS011;43458;44.012;20.922;2022-07-05T18:47:49;9.20;;;6.50;;
56929;SDS011;43458;44.012;20.922;2022-07-05T18:50:15;11.35;;;7.85;;
56929;SDS011;43458;44.012;20.922;2022-07-05T18:52:42;13.48;;;8.38;;
56929;SDS011;43458;44.012;20.922;2022-07-05T18:55:08;10.30;;;8.50;;
56929;SDS011;43458;44.012;20.922;2022-07-05T18:57:34;14.88;;;8.05;;
56929;SDS011;43458;44.012;20.922;2022-07-05T19:00:00;9.73;;;7.38;;
56929;SDS011;43458;44.012;20.922;2022-07-05T19:02:26;9.32;;;6.63;;
56929;SDS011;43458;44.012;20.922;2022-07-05T19:04:52;9.93;;;7.15;;
56929;SDS011;43458;44.012;20.922;2022-07-05T19:07:18;11.15;;;6.88;;
56929;SDS011;43458;44.012;20.922;2022-07-05T19:10:03;10.65;;;6.65;;
56929;SDS011;43458;44.012;20.922;2022-07-05T19:12:48;11.05;;;6.80;;
56929;SDS011;43458;44.012;20.922;2022-07-05T19:15:33;8.73;;;6.32;;
56929;SDS011;43458;44.012;20.922;2022-07-05T19:17:59;8.63;;;6.38;;
56929;SDS011;43458;44.012;20.922;2022-07-05T19:20:25;10.65;;;7.03;;
56929;SDS011;43458;44.012;20.922;2022-07-05T19:22:51;11.82;;;6.40;;
56929;SDS011;43458;44.012;20.922;2022-07-05T19:25:18;8.32;;;6.32;;
56929;SDS011;43458;44.012;20.922;2022-07-05T19:27:44;8.43;;;6.13;;
56929;SDS011;43458;44.012;20.922;2022-07-05T19:30:10;6.88;;;5.40;;
56929;SDS011;43458;44.012;20.922;2022-07-05T19:32:36;8.73;;;6.80;;
56929;SDS011;43458;44.012;20.922;2022-07-05T19:35:03;10.75;;;6.32;;
56929;SDS011;43458;44.012;20.922;2022-07-05T19:37:29;7.80;;;5.95;;
56929;SDS011;43458;44.012;20.922;2022-07-05T19:39:55;10.50;;;7.15;;
56929;SDS011;43458;44.012;20.922;2022-07-05T19:42:21;8.02;;;5.55;;
56929;SDS011;43458;44.012;20.922;2022-07-05T19:44:48;11.00;;;5.97;;
56929;SDS011;43458;44.012;20.922;2022-07-05T19:47:15;8.77;;;5.82;;
56929;SDS011;43458;44.012;20.922;2022-07-05T19:49:42;10.18;;;5.78;;
56929;SDS011;43458;44.012;20.922;2022-07-05T19:52:08;8.73;;;5.65;;
56929;SDS011;43458;44.012;20.922;2022-07-05T19:54:34;9.25;;;6.30;;
56929;SDS011;43458;44.012;20.922;2022-07-05T19:57:00;10.20;;;6.15;;
56929;SDS011;43458;44.012;20.922;2022-07-05T19:59:26;9.35;;;5.55;;
56929;SDS011;43458;44.012;20.922;2022-07-05T20:01:52;9.77;;;5.90;;
56929;SDS011;43458;44.012;20.922;2022-07-05T20:04:19;9.60;;;6.15;;
56929;SDS011;43458;44.012;20.922;2022-07-05T20:06:45;10.20;;;6.18;;
56929;SDS011;43458;44.012;20.922;2022-07-05T20:09:11;9.82;;;6.15;;
56929;SDS011;43458;44.012;20.922;2022-07-05T20:11:37;9.43;;;6.13;;
56929;SDS011;43458;44.012;20.922;2022-07-05T20:14:03;9.07;;;6.07;;
56929;SDS011;43458;44.012;20.922;2022-07-05T20:16:29;7.43;;;5.50;;
56929;SDS011;43458;44.012;20.922;2022-07-05T20:18:55;8.05;;;5.30;;
56929;SDS011;43458;44.012;20.922;2022-07-05T20:21:22;21.55;;;6.53;;
56929;SDS011;43458;44.012;20.922;2022-07-05T20:23:48;8.10;;;5.88;;
56929;SDS011;43458;44.012;20.922;2022-07-05T20:26:14;6.95;;;5.38;;
56929;SDS011;43458;44.012;20.922;2022-07-05T20:28:40;10.30;;;6.18;;
56929;SDS011;43458;44.012;20.922;2022-07-05T20:31:06;11.18;;;6.07;;
56929;SDS011;43458;44.012;20.922;2022-07-05T20:33:32;10.32;;;6.28;;
56929;SDS011;43458;44.012;20.922;2022-07-05T20:35:58;11.88;;;6.60;;
56929;SDS011;43458;44.012;20.922;2022-07-05T20:38:24;10.00;;;6.75;;
56929;SDS011;43458;44.012;20.922;2022-07-05T20:40:50;10.30;;;7.07;;
56929;SDS011;43458;44.012;20.922;2022-07-05T20:43:16;9.15;;;6.95;;
56929;SDS011;43458;44.012;20.922;2022-07-05T20:45:42;9.38;;;7.13;;
56929;SDS011;43458;44.012;20.922;2022-07-05T20:48:08;9.10;;;6.65;;
56929;SDS011;43458;44.012;20.922;2022-07-05T20:50:34;9.43;;;6.85;;
56929;SDS011;43458;44.012;20.922;2022-07-05T20:53:01;8.55;;;6.65;;
56929;SDS011;43458;44.012;20.922;2022-07-05T20:55:27;10.45;;;7.10;;
56929;SDS011;43458;44.012;20.922;2022-07-05T20:57:53;10.57;;;7.32;;
56929;SDS011;43458;44.012;20.922;2022-07-05T21:00:19;10.90;;;7.75;;
56929;SDS011;43458;44.012;20.922;2022-07-05T21:02:46;14.95;;;9.60;;
56929;SDS011;43458;44.012;20.922;2022-07-05T21:05:12;12.35;;;8.40;;
56929;SDS011;43458;44.012;20.922;2022-07-05T21:07:39;10.65;;;8.60;;
56929;SDS011;43458;44.012;20.922;2022-07-05T21:10:06;10.60;;;8.70;;
56929;SDS011;43458;44.012;20.922;2022-07-05T21:12:33;13.20;;;8.43;;
56929;SDS011;43458;44.012;20.922;2022-07-05T21:14:59;13.23;;;10.23;;
56929;SDS011;43458;44.012;20.922;2022-07-05T21:17:25;14.48;;;9.98;;
56929;SDS011;43458;44.012;20.922;2022-07-05T21:19:51;13.15;;;11.30;;
56929;SDS011;43458;44.012;20.922;2022-07-05T21:22:17;16.83;;;12.25;;
56929;SDS011;43458;44.012;20.922;2022-07-05T21:24:43;14.73;;;12.32;;
56929;SDS011;43458;44.012;20.922;2022-07-05T21:27:09;29.83;;;22.63;;
56929;SDS011;43458;44.012;20.922;2022-07-05T21:29:35;20.65;;;18.52;;
56929;SDS011;43458;44.012;20.922;2022-07-05T21:32:01;71.38;;;49.28;;
56929;SDS011;43458;44.012;20.922;2022-07-05T21:34:28;72.90;;;55.45;;
56929;SDS011;43458;44.012;20.922;2022-07-05T21:36:54;14.15;;;12.63;;
56929;SDS011;43458;44.012;20.922;2022-07-05T21:39:20;18.77;;;14.23;;
56929;SDS011;43458;44.012;20.922;2022-07-05T21:41:48;16.63;;;12.65;;
56929;SDS011;43458;44.012;20.922;2022-07-05T21:44:14;15.52;;;13.02;;
56929;SDS011;43458;44.012;20.922;2022-07-05T21:46:43;15.50;;;13.15;;
56929;SDS011;43458;44.012;20.922;2022-07-05T21:49:09;18.02;;;13.35;;
56929;SDS011;43458;44.012;20.922;2022-07-05T21:51:35;18.00;;;12.65;;